createdAt,value
2022-08-09T00:00:50.440Z,3.17
2022-08-09T00:01:56.271Z,3.40
2022-08-09T00:03:01.058Z,2.83
2022-08-09T00:04:15.262Z,3.00
2022-08-09T00:06:18.957Z,3.05
2022-08-09T00:06:47.928Z,3.35
2022-08-09T00:07:49.683Z,3.08
2022-08-09T00:08:57.475Z,2.90
2022-08-09T00:09:59.657Z,3.65
2022-08-09T00:11:05.991Z,3.47
2022-08-09T00:12:29.838Z,3.13
2022-08-09T00:13:38.331Z,3.45
2022-08-09T00:14:40.349Z,3.05
2022-08-09T00:15:59.508Z,3.08
2022-08-09T00:17:04.239Z,2.72
2022-08-09T00:18:11.331Z,3.13
2022-08-09T00:19:18.444Z,2.90
2022-08-09T00:20:23.065Z,2.92
2022-08-09T00:21:25.207Z,3.42
2022-08-09T00:22:31.727Z,3.40
2022-08-09T00:23:57.235Z,3.40
2022-08-09T00:25:00.180Z,3.25
2022-08-09T00:26:07.265Z,3.58
2022-08-09T00:27:10.790Z,3.10
2022-08-09T00:28:12.797Z,3.08
2022-08-09T00:30:10.417Z,3.80
2022-08-09T00:30:37.775Z,2.88
2022-08-09T00:32:00.055Z,3.30
2022-08-09T00:33:01.840Z,3.60
2022-08-09T00:34:03.680Z,2.95
2022-08-09T00:35:09.186Z,2.78
2022-08-09T00:36:12.324Z,3.22
2022-08-09T00:37:15.621Z,2.97
2022-08-09T00:38:21.451Z,3.60
2022-08-09T00:40:14.007Z,3.42
2022-08-09T00:40:52.657Z,3.85
2022-08-09T00:44:11.784Z,3.40
2022-08-09T00:44:16.858Z,3.13
2022-08-09T00:44:46.955Z,2.75
2022-08-09T00:45:53.775Z,3.33
2022-08-09T00:47:05.010Z,3.40
2022-08-09T00:48:10.062Z,3.22
2022-08-09T00:49:17.660Z,3.20
2022-08-09T00:50:25.403Z,3.15
2022-08-09T00:51:33.770Z,3.40
2022-08-09T00:52:37.214Z,3.45
2022-08-09T00:53:40.063Z,3.28
2022-08-09T00:54:41.753Z,3.03
2022-08-09T00:56:03.127Z,3.10
2022-08-09T00:57:10.215Z,3.45
2022-08-09T00:58:14.580Z,3.55
2022-08-09T00:59:20.139Z,3.25
2022-08-09T01:00:40.862Z,3.10
2022-08-09T01:01:45.312Z,3.10
2022-08-09T01:02:50.225Z,3.20
2022-08-09T01:04:01.086Z,3.45
2022-08-09T01:06:17.942Z,3.00
2022-08-09T01:07:37.884Z,2.72
2022-08-09T01:09:20.188Z,3.13
2022-08-09T01:10:39.050Z,3.15
2022-08-09T01:12:00.068Z,3.45
2022-08-09T01:13:53.538Z,3.10
2022-08-09T01:14:58.298Z,3.63
2022-08-09T01:16:04.998Z,3.10
2022-08-09T01:17:12.174Z,3.03
2022-08-09T01:18:30.378Z,3.17
2022-08-09T01:19:40.042Z,3.10
2022-08-09T01:21:17.493Z,3.10
2022-08-09T01:23:04.510Z,3.08
2022-08-09T01:24:18.704Z,2.90
2022-08-09T01:25:41.507Z,3.13
2022-08-09T01:27:15.336Z,3.58
2022-08-09T01:28:22.390Z,3.58
2022-08-09T01:29:41.135Z,3.25
2022-08-09T01:30:59.046Z,3.53
2022-08-09T01:32:32.698Z,3.22
2022-08-09T01:33:29.808Z,3.38
2022-08-09T01:34:35.341Z,3.55
2022-08-09T01:35:51.835Z,3.63
2022-08-09T01:36:57.794Z,3.47
2022-08-09T01:38:08.161Z,3.45
2022-08-09T01:39:14.064Z,3.60
2022-08-09T01:40:23.093Z,3.80
2022-08-09T01:41:32.920Z,3.75
2022-08-09T01:42:36.866Z,3.63
2022-08-09T01:43:51.889Z,3.58
2022-08-09T01:44:55.837Z,4.00
2022-08-09T01:45:58.120Z,3.83
2022-08-09T01:47:02.738Z,4.13
2022-08-09T01:48:06.237Z,3.63
2022-08-09T01:49:21.129Z,4.32
2022-08-09T01:50:36.639Z,3.75
2022-08-09T01:51:53.922Z,4.07
2022-08-09T01:52:57.992Z,3.90
2022-08-09T01:54:07.154Z,3.85
2022-08-09T01:55:10.866Z,4.05
2022-08-09T01:56:13.531Z,3.80
2022-08-09T01:57:23.798Z,3.63
2022-08-09T01:58:29.868Z,3.63
2022-08-09T01:59:32.738Z,3.85
2022-08-09T02:00:46.372Z,4.53
2022-08-09T02:01:59.367Z,3.45
2022-08-09T02:03:04.894Z,3.72
2022-08-09T02:04:09.779Z,3.83
2022-08-09T02:05:15.730Z,3.60
2022-08-09T02:06:39.810Z,3.60
2022-08-09T02:08:38.672Z,3.88
2022-08-09T02:09:16.491Z,3.92
2022-08-09T02:10:29.950Z,3.60
2022-08-09T02:11:42.622Z,3.75
2022-08-09T02:12:47.095Z,3.40
2022-08-09T02:14:06.658Z,4.00
2022-08-09T02:15:11.766Z,3.55
2022-08-09T02:16:33.844Z,3.38
2022-08-09T02:18:09.763Z,3.58
2022-08-09T02:19:10.148Z,3.70
2022-08-09T02:20:13.060Z,3.55
2022-08-09T02:21:34.307Z,3.78
2022-08-09T02:22:46.346Z,3.80
2022-08-09T02:23:54.523Z,3.30
2022-08-09T02:25:00.423Z,3.75
2022-08-09T02:26:04.935Z,3.58
2022-08-09T02:27:09.710Z,4.40
2022-08-09T02:28:20.148Z,3.67
2022-08-09T02:29:29.225Z,3.80
2022-08-09T02:31:05.898Z,3.63
2022-08-09T02:32:11.023Z,3.88
2022-08-09T02:33:17.330Z,3.83
2022-08-09T02:34:40.644Z,4.95
2022-08-09T02:36:03.897Z,3.33
2022-08-09T02:37:12.324Z,3.58
2022-08-09T02:38:22.064Z,4.32
2022-08-09T02:39:41.867Z,3.70
2022-08-09T02:40:46.651Z,3.30
2022-08-09T02:41:56.559Z,3.90
2022-08-09T02:43:01.638Z,4.05
2022-08-09T02:44:13.798Z,3.72
2022-08-09T02:45:34.458Z,3.97
2022-08-09T02:46:38.460Z,3.42
2022-08-09T02:47:57.170Z,3.42
2022-08-09T02:49:04.617Z,3.83
2022-08-09T02:50:24.355Z,3.75
2022-08-09T02:51:33.043Z,3.38
2022-08-09T02:52:48.590Z,3.72
2022-08-09T02:54:00.877Z,3.58
2022-08-09T02:55:15.203Z,3.38
2022-08-09T02:56:23.897Z,4.20
2022-08-09T02:57:30.984Z,3.60
2022-08-09T02:58:44.376Z,3.80
2022-08-09T03:00:21.273Z,3.45
2022-08-09T03:01:15.308Z,4.10
2022-08-09T03:02:24.522Z,4.00
2022-08-09T03:04:12.470Z,3.40
2022-08-09T03:04:52.253Z,3.33
2022-08-09T03:05:57.142Z,4.28
2022-08-09T03:07:12.438Z,4.15
2022-08-09T03:08:17.128Z,3.90
2022-08-09T03:09:20.476Z,4.15
2022-08-09T03:10:24.308Z,3.47
2022-08-09T03:12:04.393Z,3.47
2022-08-09T03:12:52.023Z,3.67
2022-08-09T03:14:01.186Z,4.20
2022-08-09T03:15:05.891Z,3.63
2022-08-09T03:16:08.461Z,3.78
2022-08-09T03:17:20.503Z,3.70
2022-08-09T03:18:30.657Z,3.67
2022-08-09T03:19:52.737Z,3.55
2022-08-09T03:20:57.587Z,4.35
2022-08-09T03:22:03.139Z,4.05
2022-08-09T03:23:14.977Z,3.80
2022-08-09T03:25:59.079Z,3.40
2022-08-09T03:27:09.481Z,3.83
2022-08-09T03:28:13.769Z,4.05
2022-08-09T03:29:22.788Z,4.13
2022-08-09T03:30:29.800Z,3.97
2022-08-09T03:31:42.532Z,4.18
2022-08-09T03:32:59.947Z,3.97
2022-08-09T03:34:03.193Z,4.18
2022-08-09T03:35:24.277Z,3.85
2022-08-09T03:36:28.074Z,4.00
2022-08-09T03:37:55.548Z,3.42
2022-08-09T03:38:52.021Z,4.20
2022-08-09T03:39:56.606Z,3.90
2022-08-09T03:40:58.549Z,4.13
2022-08-09T03:42:06.893Z,4.55
2022-08-09T03:43:08.989Z,4.18
2022-08-09T03:44:13.419Z,3.88
2022-08-09T03:45:17.559Z,4.20
2022-08-09T03:46:39.509Z,3.20
2022-08-09T03:47:44.109Z,4.47
2022-08-09T03:48:57.013Z,4.20
2022-08-09T03:50:00.837Z,4.65
2022-08-09T03:51:07.275Z,3.92
2022-08-09T03:52:30.331Z,4.10
2022-08-09T03:53:37.670Z,3.55
2022-08-09T03:54:40.627Z,3.65
2022-08-09T03:55:42.512Z,3.97
2022-08-09T03:56:46.632Z,4.47
2022-08-09T03:58:03.132Z,4.10
2022-08-09T03:59:13.697Z,3.30
2022-08-09T04:00:23.228Z,4.07
2022-08-09T04:01:25.114Z,4.10
2022-08-09T04:02:32.559Z,4.25
2022-08-09T04:04:00.458Z,4.32
2022-08-09T04:05:05.983Z,4.95
2022-08-09T04:06:08.604Z,4.10
2022-08-09T04:07:14.395Z,4.00
2022-08-09T04:08:16.366Z,4.28
2022-08-09T04:09:44.392Z,4.13
2022-08-09T04:10:40.657Z,3.85
2022-08-09T04:11:59.527Z,4.28
2022-08-09T04:13:11.307Z,3.90
2022-08-09T04:14:53.016Z,4.32
2022-08-09T04:15:52.400Z,4.07
2022-08-09T04:16:57.436Z,4.57
2022-08-09T04:17:59.134Z,4.18
2022-08-09T04:19:01.134Z,4.90
2022-08-09T04:20:04.527Z,5.40
2022-08-09T04:21:06.868Z,5.10
2022-08-09T04:22:13.084Z,4.78
2022-08-09T04:23:16.746Z,4.70
2022-08-09T04:24:19.345Z,4.50
2022-08-09T04:25:21.819Z,4.78
2022-08-09T04:26:23.827Z,4.32
2022-08-09T04:27:25.820Z,4.43
2022-08-09T04:28:35.902Z,4.03
2022-08-09T04:29:38.302Z,4.90
2022-08-09T04:30:42.753Z,4.72
2022-08-09T04:31:47.634Z,4.57
2022-08-09T04:32:50.896Z,4.88
2022-08-09T04:33:57.059Z,4.65
2022-08-09T04:35:01.594Z,4.47
2022-08-09T04:36:03.769Z,4.40
2022-08-09T04:37:05.933Z,4.88
2022-08-09T04:38:07.925Z,4.47
2022-08-09T04:39:09.687Z,4.75
2022-08-09T04:40:28.449Z,5.03
2022-08-09T04:41:43.421Z,4.32
2022-08-09T04:42:45.916Z,4.30
2022-08-09T04:44:05.574Z,4.50
2022-08-09T04:45:11.568Z,4.03
2022-08-09T04:46:19.224Z,4.57
2022-08-09T04:47:59.485Z,4.20
2022-08-09T04:48:58.538Z,4.38
2022-08-09T04:50:00.385Z,4.03
2022-08-09T04:51:02.249Z,4.45
2022-08-09T04:52:05.986Z,4.78
2022-08-09T04:53:13.170Z,3.97
2022-08-09T04:54:15.514Z,4.47
2022-08-09T04:55:19.245Z,4.30
2022-08-09T04:56:21.515Z,4.80
2022-08-09T04:57:58.854Z,4.05
2022-08-09T04:58:50.886Z,4.57
2022-08-09T04:59:54.499Z,4.50
2022-08-09T05:00:56.340Z,3.53
2022-08-09T05:02:02.718Z,4.00
2022-08-09T05:03:12.777Z,3.65
2022-08-09T05:04:30.987Z,4.30
2022-08-09T05:05:52.413Z,4.30
2022-08-09T05:06:54.888Z,3.67
2022-08-09T05:07:58.536Z,3.88
2022-08-09T05:09:01.338Z,3.60
2022-08-09T05:10:03.849Z,4.13
2022-08-09T05:11:06.709Z,4.38
2022-08-09T05:12:11.002Z,3.95
2022-08-09T05:13:14.432Z,3.72
2022-08-09T05:14:16.322Z,3.95
2022-08-09T05:15:38.774Z,4.05
2022-08-09T05:16:58.098Z,4.07
2022-08-09T05:18:50.949Z,3.60
2022-08-09T05:19:25.602Z,4.18
2022-08-09T05:20:30.003Z,3.85
2022-08-09T05:21:36.635Z,4.38
2022-08-09T05:23:57.950Z,5.05
2022-08-09T05:24:12.298Z,4.25
2022-08-09T05:25:16.367Z,4.07
2022-08-09T05:26:37.234Z,4.15
2022-08-09T05:27:46.416Z,4.45
2022-08-09T05:28:49.854Z,4.13
2022-08-09T05:29:53.965Z,4.05
2022-08-09T05:30:56.046Z,4.20
2022-08-09T05:32:00.472Z,4.45
2022-08-09T05:33:02.328Z,4.47
2022-08-09T05:34:03.962Z,4.93
2022-08-09T05:35:06.615Z,4.10
2022-08-09T05:36:09.489Z,4.57
2022-08-09T05:37:13.510Z,4.60
2022-08-09T05:38:22.039Z,4.95
2022-08-09T05:39:29.542Z,4.22
2022-08-09T05:40:37.718Z,4.53
2022-08-09T05:41:39.532Z,4.30
2022-08-09T05:42:42.108Z,4.38
2022-08-09T05:43:45.105Z,4.32
2022-08-09T05:44:52.856Z,4.10
2022-08-09T05:45:56.671Z,4.15
2022-08-09T05:46:59.301Z,4.03
2022-08-09T05:48:01.457Z,4.07
2022-08-09T05:49:03.658Z,4.00
2022-08-09T05:50:25.887Z,4.53
2022-08-09T05:51:46.061Z,4.50
2022-08-09T05:52:53.510Z,4.50
2022-08-09T05:53:57.447Z,4.38
2022-08-09T05:55:03.113Z,4.15
2022-08-09T05:56:10.396Z,4.10
2022-08-09T05:57:19.318Z,4.50
2022-08-09T05:58:21.244Z,4.13
2022-08-09T05:59:23.008Z,4.40
2022-08-09T06:00:32.946Z,3.90
2022-08-09T06:01:42.722Z,4.05
2022-08-09T06:02:46.735Z,4.00
2022-08-09T06:03:58.181Z,4.28
2022-08-09T06:05:00.952Z,4.43
2022-08-09T06:06:04.902Z,3.92
2022-08-09T06:07:08.034Z,4.22
2022-08-09T06:08:11.460Z,4.03
2022-08-09T06:09:41.140Z,3.95
2022-08-09T06:10:37.904Z,4.63
2022-08-09T06:11:40.946Z,4.22
2022-08-09T06:13:12.405Z,3.80
2022-08-09T06:14:20.930Z,4.18
2022-08-09T06:15:22.576Z,4.22
2022-08-09T06:16:29.534Z,4.43
2022-08-09T06:17:39.875Z,4.57
2022-08-09T06:18:41.809Z,4.22
2022-08-09T06:19:44.102Z,4.47
2022-08-09T06:20:54.275Z,4.35
2022-08-09T06:21:58.822Z,4.57
2022-08-09T06:23:00.752Z,3.90
2022-08-09T06:24:02.773Z,4.57
2022-08-09T06:25:08.746Z,4.20
2022-08-09T06:26:20.545Z,4.65
2022-08-09T06:27:23.377Z,4.68
2022-08-09T06:28:27.456Z,4.80
2022-08-09T06:29:33.750Z,5.32
2022-08-09T06:30:50.359Z,3.97
2022-08-09T06:32:08.794Z,4.35
2022-08-09T06:33:40.121Z,4.80
2022-08-09T06:34:35.995Z,4.78
2022-08-09T06:35:57.123Z,4.53
2022-08-09T06:37:00.474Z,4.43
2022-08-09T06:38:05.771Z,4.32
2022-08-09T06:39:11.452Z,6.93
2022-08-09T06:40:21.813Z,5.07
2022-08-09T06:41:58.824Z,4.53
2022-08-09T06:42:50.930Z,5.00
2022-08-09T06:43:53.194Z,4.40
2022-08-09T06:44:55.369Z,5.07
2022-08-09T06:46:07.003Z,4.88
2022-08-09T06:47:12.797Z,5.10
2022-08-09T06:48:16.825Z,4.43
2022-08-09T06:50:11.311Z,4.30
2022-08-09T06:50:54.061Z,4.25
2022-08-09T06:51:56.073Z,4.43
2022-08-09T06:52:58.929Z,4.50
2022-08-09T06:54:01.216Z,4.57
2022-08-09T06:55:10.045Z,4.70
2022-08-09T06:56:14.408Z,4.65
2022-08-09T06:57:16.478Z,4.38
2022-08-09T07:00:46.607Z,4.60
2022-08-09T07:00:54.788Z,4.10
2022-08-09T07:01:02.368Z,4.53
2022-08-09T07:02:05.882Z,4.50
2022-08-09T07:03:07.988Z,4.85
2022-08-09T07:04:20.133Z,4.00
2022-08-09T07:05:22.227Z,3.80
2022-08-09T07:06:25.585Z,4.13
2022-08-09T07:08:00.986Z,4.63
2022-08-09T07:08:51.613Z,4.25
2022-08-09T07:10:00.168Z,3.92
2022-08-09T07:11:23.527Z,3.97
2022-08-09T07:12:41.121Z,3.92
2022-08-09T07:13:45.360Z,4.05
2022-08-09T07:16:38.681Z,4.32
2022-08-09T07:16:41.008Z,4.07
2022-08-09T07:17:55.988Z,4.07
2022-08-09T07:18:58.190Z,3.47
2022-08-09T07:20:00.651Z,4.72
2022-08-09T07:21:02.470Z,4.47
2022-08-09T07:22:10.832Z,4.63
2022-08-09T07:23:18.736Z,4.38
2022-08-09T07:24:21.562Z,4.20
2022-08-09T07:25:38.829Z,4.90
2022-08-09T07:26:44.467Z,5.03
2022-08-09T07:27:53.487Z,5.13
2022-08-09T07:29:08.541Z,4.80
2022-08-09T07:30:13.468Z,5.13
2022-08-09T07:31:15.228Z,5.72
2022-08-09T07:32:17.751Z,4.88
2022-08-09T07:33:19.809Z,5.30
2022-08-09T07:34:21.890Z,5.35
2022-08-09T07:35:30.806Z,4.95
2022-08-09T07:36:55.014Z,5.70
2022-08-09T07:37:59.417Z,5.47
2022-08-09T07:39:02.266Z,5.15
2022-08-09T07:40:05.146Z,4.85
2022-08-09T07:41:11.560Z,5.22
2022-08-09T07:42:15.015Z,5.18
2022-08-09T07:43:17.229Z,4.95
2022-08-09T07:44:32.850Z,4.88
2022-08-09T07:45:40.961Z,5.35
2022-08-09T07:46:43.126Z,5.00
2022-08-09T07:48:00.446Z,5.20
2022-08-09T07:49:03.443Z,5.15
2022-08-09T07:50:08.505Z,5.20
2022-08-09T07:52:04.420Z,5.28
2022-08-09T07:52:33.350Z,4.80
2022-08-09T07:54:05.290Z,4.50
2022-08-09T07:55:01.338Z,4.80
2022-08-09T07:56:26.606Z,4.88
2022-08-09T07:57:35.947Z,4.32
2022-08-09T07:58:38.069Z,4.97
2022-08-09T07:59:45.684Z,3.88
2022-08-09T08:00:55.947Z,3.72
2022-08-09T08:02:08.852Z,4.07
2022-08-09T08:03:11.593Z,4.28
2022-08-09T08:04:13.271Z,3.88
2022-08-09T08:05:18.102Z,3.35
2022-08-09T08:06:21.215Z,3.95
2022-08-09T08:08:43.723Z,3.60
2022-08-09T08:09:03.549Z,4.18
2022-08-09T08:10:10.849Z,3.53
2022-08-09T08:12:09.275Z,3.22
2022-08-09T08:12:37.096Z,4.22
2022-08-09T08:13:56.355Z,3.85
2022-08-09T08:14:59.819Z,3.50
2022-08-09T08:16:01.504Z,3.20
2022-08-09T08:17:08.672Z,3.38
2022-08-09T08:18:11.112Z,3.13
2022-08-09T08:19:17.425Z,3.58
2022-08-09T08:20:32.698Z,3.20
2022-08-09T08:21:39.806Z,3.40
2022-08-09T08:22:41.783Z,3.20
2022-08-09T08:23:43.641Z,3.00
2022-08-09T08:24:57.636Z,2.97
2022-08-09T08:26:08.002Z,3.13
2022-08-09T08:27:16.723Z,2.58
2022-08-09T08:28:32.471Z,3.38
2022-08-09T08:29:39.415Z,2.95
2022-08-09T08:30:47.496Z,3.22
2022-08-09T08:32:03.705Z,3.45
2022-08-09T08:33:11.945Z,2.95
2022-08-09T08:34:25.444Z,3.10
2022-08-09T08:35:36.973Z,2.80
2022-08-09T08:36:49.287Z,2.67
2022-08-09T08:38:02.188Z,2.80
2022-08-09T08:39:11.594Z,3.08
2022-08-09T08:40:13.896Z,3.25
2022-08-09T08:41:16.957Z,3.58
2022-08-09T08:42:19.182Z,3.30
2022-08-09T08:43:37.288Z,2.90
2022-08-09T08:44:41.362Z,3.08
2022-08-09T08:45:51.655Z,3.38
2022-08-09T08:47:12.493Z,2.72
2022-08-09T08:48:19.423Z,2.90
2022-08-09T08:49:26.804Z,3.15
2022-08-09T08:50:41.220Z,3.17
2022-08-09T08:52:00.320Z,3.90
2022-08-09T08:53:11.979Z,4.13
2022-08-09T08:54:20.104Z,3.25
2022-08-09T08:55:24.505Z,3.17
2022-08-09T08:56:28.466Z,3.17
2022-08-09T08:57:34.713Z,3.85
2022-08-09T08:58:37.712Z,3.53
2022-08-09T08:59:44.766Z,3.88
2022-08-09T09:00:56.249Z,5.38
2022-08-09T09:01:59.941Z,3.93
2022-08-09T09:03:16.436Z,3.47
2022-08-09T09:04:31.917Z,3.28
2022-08-09T09:06:00.438Z,2.95
2022-08-09T09:07:07.962Z,4.43
2022-08-09T09:08:30.319Z,3.03
2022-08-09T09:09:58.456Z,3.10
2022-08-09T09:10:57.685Z,3.20
2022-08-09T09:11:59.999Z,3.17
2022-08-09T09:13:09.234Z,2.80
2022-08-09T09:14:22.192Z,3.17
2022-08-09T09:15:28.662Z,2.70
2022-08-09T09:16:34.084Z,2.58
2022-08-09T09:17:49.034Z,2.83
2022-08-09T09:19:15.735Z,2.42
2022-08-09T09:20:17.340Z,2.63
2022-08-09T09:21:26.080Z,2.13
2022-08-09T09:22:29.544Z,3.35
2022-08-09T09:23:57.234Z,2.40
2022-08-09T09:26:02.186Z,2.20
2022-08-09T09:26:23.765Z,2.35
2022-08-09T09:28:06.739Z,2.85
2022-08-09T09:29:03.663Z,2.10
2022-08-09T09:30:32.907Z,2.97
2022-08-09T09:32:06.012Z,2.42
2022-08-09T09:33:16.287Z,2.28
2022-08-09T09:34:19.325Z,3.70
2022-08-09T09:35:21.062Z,2.88
2022-08-09T09:36:22.699Z,1.98
2022-08-09T09:37:31.979Z,2.13
2022-08-09T09:38:57.393Z,1.90
2022-08-09T09:40:00.771Z,2.35
2022-08-09T09:41:04.959Z,2.15
2022-08-09T09:42:24.367Z,1.75
2022-08-09T09:43:26.374Z,2.38
2022-08-09T09:44:33.874Z,1.90
2022-08-09T09:46:41.748Z,2.15
2022-08-09T09:47:16.603Z,1.98
2022-08-09T09:48:20.863Z,2.15
2022-08-09T09:49:49.839Z,2.00
2022-08-09T09:50:51.076Z,2.00
2022-08-09T09:52:02.020Z,1.80
2022-08-09T09:53:04.104Z,1.90
2022-08-09T09:54:19.251Z,2.22
2022-08-09T09:55:28.632Z,2.15
2022-08-09T09:56:36.987Z,2.38
2022-08-09T09:58:16.371Z,1.88
2022-08-09T09:59:35.485Z,1.88
2022-08-09T10:00:44.280Z,2.00
2022-08-09T10:02:02.498Z,3.30
2022-08-09T10:03:11.964Z,2.00
2022-08-09T10:04:22.772Z,3.08
2022-08-09T10:06:03.674Z,2.38
2022-08-09T10:06:54.644Z,2.15
2022-08-09T10:08:25.943Z,1.77
2022-08-09T10:09:48.610Z,2.10
2022-08-09T10:10:54.068Z,1.80
2022-08-09T10:12:14.635Z,2.38
2022-08-09T10:13:43.082Z,2.97
2022-08-09T10:14:48.421Z,2.70
2022-08-09T10:16:55.556Z,2.22
2022-08-09T10:17:38.785Z,2.22
2022-08-09T10:18:36.310Z,1.90
2022-08-09T10:19:40.704Z,1.73
2022-08-09T10:20:47.827Z,1.80
2022-08-09T10:21:57.026Z,2.15
2022-08-09T10:23:21.865Z,1.50
2022-08-09T10:24:25.676Z,1.80
2022-08-09T10:26:06.267Z,1.90
2022-08-09T10:27:01.582Z,10.35
2022-08-09T10:28:08.199Z,2.90
2022-08-09T10:29:31.073Z,2.25
2022-08-09T10:32:28.589Z,1.95
2022-08-09T10:34:04.599Z,2.30
2022-08-09T10:34:42.612Z,2.08
2022-08-09T10:35:47.016Z,3.13
2022-08-09T10:36:56.895Z,2.50
2022-08-09T10:38:06.139Z,2.47
2022-08-09T10:39:29.472Z,2.13
2022-08-09T10:40:39.007Z,2.85
2022-08-09T10:41:45.583Z,2.55
2022-08-09T10:42:53.033Z,3.05
2022-08-09T10:43:59.646Z,2.25
2022-08-09T10:45:12.105Z,2.80
2022-08-09T10:46:57.732Z,2.60
2022-08-09T10:48:22.685Z,3.13
2022-08-09T10:49:51.678Z,2.75
2022-08-09T10:51:09.413Z,3.08
2022-08-09T10:52:20.545Z,3.67
2022-08-09T10:53:58.339Z,4.65
2022-08-09T10:55:28.854Z,3.60
2022-08-09T10:57:07.736Z,3.10
2022-08-09T10:58:29.824Z,3.42
2022-08-09T10:59:31.929Z,3.40
2022-08-09T11:03:02.652Z,3.47
2022-08-09T11:03:16.112Z,3.70
2022-08-09T11:04:30.171Z,4.40
2022-08-09T11:05:33.803Z,4.15
2022-08-09T11:06:39.938Z,3.75
2022-08-09T11:07:57.869Z,3.97
2022-08-09T11:09:15.957Z,3.80
2022-08-09T11:10:53.366Z,2.92
2022-08-09T11:12:00.848Z,3.08
2022-08-09T11:13:49.234Z,3.85
2022-08-09T11:14:48.762Z,3.33
2022-08-09T11:16:04.381Z,2.92
2022-08-09T11:17:19.401Z,3.80
2022-08-09T11:18:45.114Z,2.90
2022-08-09T11:20:20.452Z,3.05
2022-08-09T11:21:57.305Z,4.10
2022-08-09T11:23:13.737Z,3.53
2022-08-09T11:24:15.681Z,3.67
2022-08-09T11:25:18.678Z,4.60
2022-08-09T11:26:40.762Z,3.88
2022-08-09T11:28:08.386Z,4.22
2022-08-09T11:30:06.077Z,3.97
2022-08-09T11:31:49.043Z,4.00
2022-08-09T11:33:04.286Z,2.80
2022-08-09T11:34:13.309Z,3.40
2022-08-09T11:35:35.320Z,3.28
2022-08-09T11:36:51.419Z,3.03
2022-08-09T11:37:59.282Z,3.00
2022-08-09T11:39:02.755Z,3.42
2022-08-09T11:40:07.522Z,3.00
2022-08-09T11:41:13.835Z,4.05
2022-08-09T11:42:38.641Z,3.10
2022-08-09T11:43:48.897Z,3.08
2022-08-09T11:44:53.114Z,3.35
2022-08-09T11:46:01.420Z,3.47
2022-08-09T11:47:03.397Z,3.30
2022-08-09T11:48:28.173Z,3.80
2022-08-09T11:50:54.921Z,3.13
2022-08-09T11:52:56.898Z,2.95
2022-08-09T11:53:15.991Z,3.38
2022-08-09T11:54:29.834Z,3.15
2022-08-09T11:55:53.175Z,3.22
2022-08-09T11:57:47.363Z,3.03
2022-08-09T11:59:01.761Z,2.65
2022-08-09T12:00:16.339Z,3.33
2022-08-09T12:02:15.839Z,2.85
2022-08-09T12:02:54.579Z,2.25
2022-08-09T12:04:04.735Z,2.65
2022-08-09T12:05:07.185Z,2.60
2022-08-09T12:06:26.739Z,2.70
2022-08-09T12:07:42.042Z,2.28
2022-08-09T12:08:52.057Z,2.47
2022-08-09T12:09:53.778Z,2.60
2022-08-09T12:10:59.162Z,2.80
2022-08-09T12:12:13.151Z,2.63
2022-08-09T12:14:09.950Z,2.70
2022-08-09T12:15:48.921Z,2.92
2022-08-09T12:16:44.062Z,2.60
2022-08-09T12:17:53.411Z,2.60
2022-08-09T12:18:59.455Z,2.58
2022-08-09T12:20:11.265Z,2.65
2022-08-09T12:21:38.271Z,2.72
2022-08-09T12:22:41.439Z,2.80
2022-08-09T12:24:06.303Z,2.80
2022-08-09T12:25:31.947Z,2.85
2022-08-09T12:26:44.907Z,2.95
2022-08-09T12:29:14.404Z,2.40
2022-08-09T12:29:43.919Z,2.60
2022-08-09T12:30:57.929Z,2.72
2022-08-09T12:32:06.160Z,3.05
2022-08-09T12:33:07.923Z,3.30
2022-08-09T12:34:09.657Z,2.65
2022-08-09T12:35:16.978Z,2.63
2022-08-09T12:36:32.238Z,2.53
2022-08-09T12:37:50.528Z,2.63
2022-08-09T12:38:55.436Z,2.90
2022-08-09T12:40:05.695Z,2.40
2022-08-09T12:41:07.756Z,2.88
2022-08-09T12:42:16.386Z,3.40
2022-08-09T12:43:23.902Z,2.55
2022-08-09T12:44:46.378Z,2.53
2022-08-09T12:45:59.630Z,2.70
2022-08-09T12:47:02.203Z,2.88
2022-08-09T12:48:19.884Z,2.67
2022-08-09T12:49:31.448Z,2.20
2022-08-09T12:50:36.290Z,2.83
2022-08-09T12:52:00.613Z,2.97
2022-08-09T12:53:08.773Z,2.42
2022-08-09T12:54:21.316Z,2.80
2022-08-09T12:56:12.305Z,2.72
2022-08-09T12:56:56.340Z,2.75
2022-08-09T12:58:10.631Z,2.45
2022-08-09T12:59:39.970Z,2.53
2022-08-09T13:00:52.725Z,2.50
2022-08-09T13:02:09.557Z,3.20
2022-08-09T13:03:24.448Z,3.17
2022-08-09T13:04:38.156Z,3.22
2022-08-09T13:05:51.709Z,3.50
2022-08-09T13:07:19.946Z,2.70
2022-08-09T13:08:40.933Z,2.88
2022-08-09T13:09:55.131Z,2.78
2022-08-09T13:11:00.607Z,2.67
2022-08-09T13:12:15.196Z,2.70
2022-08-09T13:14:11.811Z,2.90
2022-08-09T13:15:08.633Z,3.20
2022-08-09T13:16:15.757Z,3.17
2022-08-09T13:17:44.024Z,3.10
2022-08-09T13:18:44.086Z,2.88
2022-08-09T13:20:09.709Z,2.60
2022-08-09T13:22:35.319Z,2.50
2022-08-09T13:23:01.156Z,2.75
2022-08-09T13:24:44.348Z,2.40
2022-08-09T13:25:54.410Z,2.78
2022-08-09T13:26:58.805Z,3.30
2022-08-09T13:28:09.651Z,2.47
2022-08-09T13:29:41.989Z,2.50
2022-08-09T13:30:50.334Z,2.42
2022-08-09T13:32:17.272Z,2.47
2022-08-09T13:33:23.341Z,2.90
2022-08-09T13:34:30.925Z,3.22
2022-08-09T13:36:23.483Z,2.50
2022-08-09T13:36:57.342Z,2.60
2022-08-09T13:38:00.213Z,2.92
2022-08-09T13:41:17.773Z,3.25
2022-08-09T13:41:52.158Z,2.45
2022-08-09T13:41:57.183Z,2.67
2022-08-09T13:43:03.472Z,2.80
2022-08-09T13:44:07.058Z,2.60
2022-08-09T13:45:12.452Z,2.60
2022-08-09T13:47:17.889Z,2.50
2022-08-09T13:47:43.974Z,2.75
2022-08-09T13:48:52.468Z,2.65
2022-08-09T13:49:57.835Z,2.65
2022-08-09T13:51:02.729Z,2.80
2022-08-09T13:52:05.636Z,2.58
2022-08-09T13:53:11.298Z,2.50
2022-08-09T13:54:13.439Z,2.63
2022-08-09T13:55:17.585Z,2.42
2022-08-09T13:56:19.527Z,2.50
2022-08-09T13:57:36.399Z,2.47
2022-08-09T13:58:40.802Z,2.53
2022-08-09T13:59:43.712Z,2.58
2022-08-09T14:00:48.282Z,2.35
2022-08-09T14:02:00.731Z,2.40
2022-08-09T14:04:01.907Z,2.58
2022-08-09T14:04:26.539Z,2.47
2022-08-09T14:05:56.941Z,2.50
2022-08-09T14:06:57.674Z,2.28
2022-08-09T14:08:03.703Z,2.17
2022-08-09T14:09:06.544Z,2.50
2022-08-09T14:10:17.380Z,2.08
2022-08-09T14:11:46.857Z,2.50
2022-08-09T14:12:49.510Z,2.30
2022-08-09T14:14:22.794Z,2.20
2022-08-09T14:16:06.736Z,1.98
2022-08-09T14:16:34.937Z,2.45
2022-08-09T14:18:20.018Z,2.67
2022-08-09T14:19:00.439Z,2.97
2022-08-09T14:20:05.567Z,2.10
2022-08-09T14:21:08.535Z,2.50
2022-08-09T14:22:11.035Z,2.17
2022-08-09T14:23:20.234Z,2.45
2022-08-09T14:24:34.731Z,2.10
2022-08-09T14:25:43.091Z,2.20
2022-08-09T14:26:46.747Z,2.88
2022-08-09T14:27:58.290Z,2.40
2022-08-09T14:29:25.645Z,2.70
2022-08-09T14:30:41.546Z,3.00
2022-08-09T14:31:52.031Z,2.63
2022-08-09T14:32:55.619Z,2.78
2022-08-09T14:33:59.474Z,2.72
2022-08-09T14:35:07.360Z,2.47
2022-08-09T14:36:19.684Z,3.10
2022-08-09T14:37:22.131Z,2.40
2022-08-09T14:38:30.313Z,2.22
2022-08-09T14:39:46.157Z,2.65
2022-08-09T14:41:04.221Z,2.80
2022-08-09T14:42:11.801Z,3.00
2022-08-09T14:43:15.867Z,4.25
2022-08-09T14:44:32.390Z,3.70
2022-08-09T14:46:54.206Z,2.75
2022-08-09T14:47:27.518Z,3.28
2022-08-09T14:48:26.710Z,2.92
2022-08-09T14:49:28.889Z,2.70
2022-08-09T14:50:37.288Z,3.28
2022-08-09T14:51:42.269Z,3.38
2022-08-09T14:52:50.013Z,8.45
2022-08-09T14:53:52.958Z,2.75
2022-08-09T14:54:54.757Z,3.03
2022-08-09T14:55:56.400Z,4.03
2022-08-09T14:56:59.129Z,2.75
2022-08-09T14:58:03.567Z,2.75
2022-08-09T14:59:05.577Z,3.03
2022-08-09T15:00:13.307Z,2.90
2022-08-09T15:01:15.235Z,3.03
2022-08-09T15:02:17.755Z,2.58
2022-08-09T15:03:22.395Z,2.30
2022-08-09T15:04:24.166Z,2.35
2022-08-09T15:05:26.427Z,2.58
2022-08-09T15:06:28.861Z,2.75
2022-08-09T15:07:31.663Z,2.70
2022-08-09T15:08:37.460Z,3.08
2022-08-09T15:10:07.284Z,2.60
2022-08-09T15:11:07.037Z,2.80
2022-08-09T15:12:09.870Z,2.42
2022-08-09T15:13:13.674Z,2.70
2022-08-09T15:14:15.536Z,2.78
2022-08-09T15:15:21.862Z,2.65
2022-08-09T15:16:23.906Z,2.90
2022-08-09T15:17:32.132Z,2.75
2022-08-09T15:18:43.855Z,3.30
2022-08-09T15:19:58.973Z,2.78
2022-08-09T15:21:56.589Z,3.03
2022-08-09T15:22:25.004Z,3.92
2022-08-09T15:24:01.588Z,3.25
2022-08-09T15:24:49.805Z,3.67
2022-08-09T15:25:51.984Z,2.90
2022-08-09T15:26:53.641Z,2.75
2022-08-09T15:28:00.802Z,2.63
2022-08-09T15:29:04.950Z,3.05
2022-08-09T15:30:59.385Z,2.72
2022-08-09T15:31:42.027Z,2.58
2022-08-09T15:32:45.711Z,2.80
2022-08-09T15:34:17.991Z,2.60
2022-08-09T15:35:40.465Z,3.10
2022-08-09T15:36:31.703Z,2.70
2022-08-09T15:37:56.631Z,6.82
2022-08-09T15:39:01.925Z,4.97
2022-08-09T15:40:14.517Z,3.30
2022-08-09T15:41:22.277Z,2.95
2022-08-09T15:42:24.225Z,3.20
2022-08-09T15:43:36.850Z,2.90
2022-08-09T15:44:39.002Z,2.40
2022-08-09T15:45:51.865Z,2.67
2022-08-09T15:47:03.723Z,2.90
2022-08-09T15:49:30.458Z,3.08
2022-08-09T15:50:32.513Z,2.67
2022-08-09T15:52:02.376Z,3.50
2022-08-09T15:53:06.580Z,7.78
2022-08-09T15:54:30.106Z,16.40